FlightSource - Aviation Photo Database

World Wide Airport Lookup


Search by ICAO
Or
Search by City

FlightSource.ca - Aviation Photo Database - Litchfield Municipal Airport Information
Airport Identification
Name: Litchfield Municipal Airport
ICAO: K3LF
IATA:
Airport Location
City: Litchfield
Region: IL
Country: United States
Continent: North America
Latitude: 39.1625
Longitude: -89.6746
Airport Information
Type: Small Airport
Elevation: 690 Feet ASL
Flight Status: K3LF
More Info: K3LF
Airport Weather    
Metar: K3LF 191235Z AUTO 17005KT 10SM CLR 09/08 A3016 RMK AO2 T00880076
TAF:


Advertisement